Hussar, Canada
Current Conditions -  °F | °C
As of 6:00 PM on Saturday 22 Nov 2014 (Local Time) from CYYC Reporting Station
Light Snow Light Snow  
Wind Chill: 25°   Ceiling: 7500
Heat Index: 34°   Visibility: 15mi
Dew Point: 28°   Wind: 13mph
Humidity: 81%   Direction: 360°N
Pressure: 29.42"   Gusts: NA
Location:  51.03°N, 112.68°W
Report Text: CYYC 230100Z 36011KT 15SM -SN SCT060 BKN075 OVC130 01/M02 A2942 RMK SC3AC4AC1 SLP998
Loading
Personal Weather Stations






























Interactive Weather Map New forecast layout! Learn more

10-Day Weather Forecast

Advertisements
Track Severe Weather on mobile